aviador You're here:

YABA Decoded Metar

in
Report Time2017-10-17 20:00:00
UTC Time2017-10-17 20:26:15
Flight Rules vfr VFR
Wind290° at 12 kt
W.Decomp.*RWY 32: 10.4 kt HW 6 kt LCW
RWY 23: 6.0 kt HW 10.4 kt RCW
W.Rank290° ranks 3
Current wind is above 290° avg. (8.8)
Visibility9999 m
Phenomena:N/A
Clouds:Scattered 046 Hf
Scattered 063 Hf
Scattered 074 Hf
Expected CloudBase > 800 ft AGL from Temp-Dew spread
CeilingNone
Temp08°C
Dew Point06°C (87% RH)
AAT2.8°C
QNH1011 hPa
Raw Report
METAR YABA 172000Z AUTO 29012KT 9999 // SCT046 SCT063 SCT074 08/06 Q1011=

Extra information for YABA:More info

Social comments